Aeroporto :
LOGIN :

Iscrizione | Disclaimer

   EN    FR    IT 

 










Sommario :    VFR   VFR Marginale   IFR   IFR Intensivo   IFR Molto Intensivo
Visibilità : 
Base nubi : 
>= 8 km
>= 3000ft
5 / 8 km
1000 / 3000 ft
1500m / 5 km
500 / 1000 ft
800 / 1500m
200 / 500 ft
< 800m
< 200 ft
Simboli :   Temporali  Nebbia  Neve Forte  Precipitazioni Forti  Vento > 20 kt
SIGMETs :   Varie  Temporali  Ghiacco  Turbolenza  Onda orograficha  Ceneri Vulcaniche






- Altitudine del aeroporto : 20 ft


EBFN - Koksijde

ULTIMO METAR :
  • 250455Z AUTO 18007KT 1300 BR OVC003/// 00/M00 Q1021 AMB

METARs OBSOLETI :
  • 250425Z AUTO 17008KT 1400 BR OVC003/// 00/M00 Q1021 AMB
  • 250355Z AUTO 18007KT 1200 BR OVC003/// 00/M00 Q1021 AMB
  • 250325Z AUTO 18006KT 1300 BR OVC004/// 00/M00 Q1022 AMB
  • 250308Z AUTO 18006KT 1500 BR BKN004/// 00/M00 Q1022 AMB
  • 250255Z AUTO 17005KT 1700 BR BKN004/// 01/00 Q1022 YLO
  • 250225Z AUTO 16007KT 1700 BR OVC004/// 01/00 Q1022 YLO

TAF TAF EBFN
Valido dal 24 a 19 ore il 25 a 07 ore UTC


241541Z 2419/2507 19006KT 4000 BR SCT012
TEMPO 2419/2501 2000 BR BKN003
BECMG 2503/2505 2000 BR BKN002 OVC004
PROB40
TEMPO 2503/2507 0500 FG/FZFG OVC001



MetMap, La meteo Aeronautica in un colpo d'occhio ! - Copyright ORBIFLY Dicembre 2007 - Disclaimer

ORBIFLY MET'MAP TEAM :

Programmazione e sviluppo : Alexandra Zaïnal
Concezione : Baudouin d'Aumeries
Aiuto per la programmazione : Marc-Olivier Méhu
Supporto tecnico e logistico : Manuel Goepfert
Aiuto per la traduzione : Arnaldo La Scala

Contatto : metmap@orbifly.com




FONTI E CREDITI :

   NOAA